Etusivu
METAR-TAF:

METAR-TAF

Lentoasemat :

Lleida-Alguaire

Lleida, Espanja

Leveyspiiri: 41-43-40N, Pituuspiiri: 000-32-09E, korkeus merenpinnasta: 350 m

Tämänhetkinen sää

Tämä raportti tehtiin 31 minuuttia sitten, kello 06.00 UTC
Tuuli 6 kn idästä/koillisesta, vaihdellen koillisen ja idän välillä
Lämpötila 17°C
Kosteus 72%
Ilmanpaine 1014 hPa
Näkyvyys 10 km tai enemmän
Pilvistä 3100 ft:n korkeudessa

METAR: LEDA 160600Z 07006KT 040V100 9999 OVC031 17/12 Q1014

Aika: 08:31 (06:31 UTC)


TAF: puuttuu

Säähavainnot ja -ennusteet yli 4000 lentoasemalta (METAR- ja TAF-raportit).

Käytössä olevat sääasemat on merkitty karttaan keltaisilla ja punaisilla pisteillä.

Aseta hiiri pisteen päälle nähdäksesi sääaseman nimen.

Klikkaa sitten nähdäksesi säähavainnot ja -ennusteet.

Kartan vaihtaminen: klikkaa mustalla rastilla varustettuja vihreitä pisteitä, niin voit zoomata sisään; viivalla varustettua vihreää pistettä, niin voit zoomata ulos tai vihreitä nuolia, niin pääset viereisille kartoille.


METAR-TAF: